sensor_id;sensor_type;location;lat;lon;timestamp;P1;durP1;ratioP1;P2;durP2;ratioP2
11394;SDS011;5753;54.402;10.220;2023-02-15T00:01:41;46.00;;;21.02;;
11394;SDS011;5753;54.402;10.220;2023-02-15T00:04:07;42.33;;;19.42;;
11394;SDS011;5753;54.402;10.220;2023-02-15T00:06:35;49.80;;;22.35;;
11394;SDS011;5753;54.402;10.220;2023-02-15T00:09:02;42.45;;;18.67;;
11394;SDS011;5753;54.402;10.220;2023-02-15T00:11:28;56.40;;;22.80;;
11394;SDS011;5753;54.402;10.220;2023-02-15T00:14:18;45.65;;;22.13;;
11394;SDS011;5753;54.402;10.220;2023-02-15T00:16:46;59.97;;;24.37;;
11394;SDS011;5753;54.402;10.220;2023-02-15T00:19:14;48.03;;;22.25;;
11394;SDS011;5753;54.402;10.220;2023-02-15T00:21:42;52.97;;;28.23;;
11394;SDS011;5753;54.402;10.220;2023-02-15T00:24:09;55.88;;;24.70;;
11394;SDS011;5753;54.402;10.220;2023-02-15T00:26:38;55.10;;;25.13;;
11394;SDS011;5753;54.402;10.220;2023-02-15T00:29:05;55.78;;;22.83;;
11394;SDS011;5753;54.402;10.220;2023-02-15T00:31:32;55.45;;;26.92;;
11394;SDS011;5753;54.402;10.220;2023-02-15T00:34:19;48.70;;;21.90;;
11394;SDS011;5753;54.402;10.220;2023-02-15T00:36:49;49.22;;;21.83;;
11394;SDS011;5753;54.402;10.220;2023-02-15T00:39:16;60.08;;;26.23;;
11394;SDS011;5753;54.402;10.220;2023-02-15T00:41:43;62.42;;;28.05;;
11394;SDS011;5753;54.402;10.220;2023-02-15T00:44:11;52.20;;;24.77;;
11394;SDS011;5753;54.402;10.220;2023-02-15T00:46:37;50.92;;;26.50;;
11394;SDS011;5753;54.402;10.220;2023-02-15T00:49:04;68.85;;;25.92;;
11394;SDS011;5753;54.402;10.220;2023-02-15T00:51:31;59.67;;;22.63;;
11394;SDS011;5753;54.402;10.220;2023-02-15T00:53:57;39.75;;;20.65;;
11394;SDS011;5753;54.402;10.220;2023-02-15T00:56:23;53.40;;;24.08;;
11394;SDS011;5753;54.402;10.220;2023-02-15T00:58:50;60.03;;;25.55;;
11394;SDS011;5753;54.402;10.220;2023-02-15T01:01:17;51.83;;;26.45;;
11394;SDS011;5753;54.402;10.220;2023-02-15T01:03:44;52.13;;;24.33;;
11394;SDS011;5753;54.402;10.220;2023-02-15T01:06:11;45.88;;;22.90;;
11394;SDS011;5753;54.402;10.220;2023-02-15T01:08:39;61.20;;;25.35;;
11394;SDS011;5753;54.402;10.220;2023-02-15T01:11:09;57.25;;;29.02;;
11394;SDS011;5753;54.402;10.220;2023-02-15T01:13:37;47.65;;;27.95;;
11394;SDS011;5753;54.402;10.220;2023-02-15T01:16:05;54.88;;;27.02;;
11394;SDS011;5753;54.402;10.220;2023-02-15T01:18:32;58.05;;;24.42;;
11394;SDS011;5753;54.402;10.220;2023-02-15T01:20:59;58.83;;;25.77;;
11394;SDS011;5753;54.402;10.220;2023-02-15T01:23:25;52.92;;;26.77;;
11394;SDS011;5753;54.402;10.220;2023-02-15T01:25:51;68.45;;;30.52;;
11394;SDS011;5753;54.402;10.220;2023-02-15T01:28:18;45.47;;;23.08;;
11394;SDS011;5753;54.402;10.220;2023-02-15T01:30:44;47.50;;;24.50;;
11394;SDS011;5753;54.402;10.220;2023-02-15T01:33:10;61.25;;;26.10;;
11394;SDS011;5753;54.402;10.220;2023-02-15T01:35:42;48.95;;;26.15;;
11394;SDS011;5753;54.402;10.220;2023-02-15T01:38:10;55.45;;;26.15;;
11394;SDS011;5753;54.402;10.220;2023-02-15T01:40:37;48.45;;;20.80;;
11394;SDS011;5753;54.402;10.220;2023-02-15T01:43:07;43.33;;;20.92;;
11394;SDS011;5753;54.402;10.220;2023-02-15T01:45:36;48.33;;;22.15;;
11394;SDS011;5753;54.402;10.220;2023-02-15T01:50:50;44.22;;;21.95;;
11394;SDS011;5753;54.402;10.220;2023-02-15T01:53:24;46.88;;;21.77;;
11394;SDS011;5753;54.402;10.220;2023-02-15T01:56:06;43.72;;;19.48;;
11394;SDS011;5753;54.402;10.220;2023-02-15T01:58:37;46.65;;;23.17;;
11394;SDS011;5753;54.402;10.220;2023-02-15T02:01:04;46.42;;;20.58;;
11394;SDS011;5753;54.402;10.220;2023-02-15T02:06:30;55.30;;;22.30;;
11394;SDS011;5753;54.402;10.220;2023-02-15T02:08:57;41.63;;;17.08;;
11394;SDS011;5753;54.402;10.220;2023-02-15T02:11:24;45.65;;;18.15;;
11394;SDS011;5753;54.402;10.220;2023-02-15T02:13:51;57.55;;;16.23;;
11394;SDS011;5753;54.402;10.220;2023-02-15T02:16:38;36.42;;;16.63;;
11394;SDS011;5753;54.402;10.220;2023-02-15T02:22:30;36.13;;;13.90;;
11394;SDS011;5753;54.402;10.220;2023-02-15T02:33:54;34.45;;;17.35;;
11394;SDS011;5753;54.402;10.220;2023-02-15T02:42:02;51.50;;;18.10;;
11394;SDS011;5753;54.402;10.220;2023-02-15T02:44:42;52.90;;;17.42;;
11394;SDS011;5753;54.402;10.220;2023-02-15T02:50:05;33.88;;;15.68;;
11394;SDS011;5753;54.402;10.220;2023-02-15T02:55:06;41.55;;;16.33;;
11394;SDS011;5753;54.402;10.220;2023-02-15T03:00:36;40.13;;;16.15;;
11394;SDS011;5753;54.402;10.220;2023-02-15T03:03:11;40.45;;;21.02;;
11394;SDS011;5753;54.402;10.220;2023-02-15T03:05:44;29.85;;;18.92;;
11394;SDS011;5753;54.402;10.220;2023-02-15T03:08:14;38.78;;;16.38;;
11394;SDS011;5753;54.402;10.220;2023-02-15T03:10:47;46.28;;;18.33;;
11394;SDS011;5753;54.402;10.220;2023-02-15T03:13:16;48.03;;;18.02;;
11394;SDS011;5753;54.402;10.220;2023-02-15T03:15:43;57.22;;;17.13;;
11394;SDS011;5753;54.402;10.220;2023-02-15T03:18:30;38.83;;;13.50;;
11394;SDS011;5753;54.402;10.220;2023-02-15T03:21:01;27.00;;;14.55;;
11394;SDS011;5753;54.402;10.220;2023-02-15T03:23:29;30.58;;;13.20;;
11394;SDS011;5753;54.402;10.220;2023-02-15T03:26:01;33.15;;;11.80;;
11394;SDS011;5753;54.402;10.220;2023-02-15T03:28:32;32.20;;;13.75;;
11394;SDS011;5753;54.402;10.220;2023-02-15T03:31:11;33.95;;;16.25;;
11394;SDS011;5753;54.402;10.220;2023-02-15T03:33:40;32.63;;;14.48;;
11394;SDS011;5753;54.402;10.220;2023-02-15T03:41:55;27.00;;;13.50;;
11394;SDS011;5753;54.402;10.220;2023-02-15T03:44:28;32.97;;;13.52;;
11394;SDS011;5753;54.402;10.220;2023-02-15T03:49:48;20.65;;;13.20;;
11394;SDS011;5753;54.402;10.220;2023-02-15T03:52:26;33.47;;;15.25;;
11394;SDS011;5753;54.402;10.220;2023-02-15T03:54:56;25.02;;;12.68;;
11394;SDS011;5753;54.402;10.220;2023-02-15T03:57:24;17.55;;;13.20;;
11394;SDS011;5753;54.402;10.220;2023-02-15T04:03:50;26.02;;;13.43;;
11394;SDS011;5753;54.402;10.220;2023-02-15T04:05:58;22.05;;;11.45;;
11394;SDS011;5753;54.402;10.220;2023-02-15T04:08:27;37.83;;;15.50;;
11394;SDS011;5753;54.402;10.220;2023-02-15T04:11:13;28.15;;;15.70;;
11394;SDS011;5753;54.402;10.220;2023-02-15T04:13:39;29.02;;;13.63;;
11394;SDS011;5753;54.402;10.220;2023-02-15T04:16:05;31.58;;;15.98;;
11394;SDS011;5753;54.402;10.220;2023-02-15T04:18:36;25.92;;;14.18;;
11394;SDS011;5753;54.402;10.220;2023-02-15T04:21:23;29.20;;;14.35;;
11394;SDS011;5753;54.402;10.220;2023-02-15T04:24:09;26.80;;;11.90;;
11394;SDS011;5753;54.402;10.220;2023-02-15T04:26:55;27.55;;;13.82;;
11394;SDS011;5753;54.402;10.220;2023-02-15T04:29:22;23.92;;;14.23;;
11394;SDS011;5753;54.402;10.220;2023-02-15T04:31:50;33.47;;;15.10;;
11394;SDS011;5753;54.402;10.220;2023-02-15T04:34:17;28.63;;;14.10;;
11394;SDS011;5753;54.402;10.220;2023-02-15T04:36:44;32.45;;;15.15;;
11394;SDS011;5753;54.402;10.220;2023-02-15T04:39:12;38.97;;;13.68;;
11394;SDS011;5753;54.402;10.220;2023-02-15T04:41:39;52.60;;;13.30;;
11394;SDS011;5753;54.402;10.220;2023-02-15T04:44:05;38.00;;;15.00;;
11394;SDS011;5753;54.402;10.220;2023-02-15T04:46:32;35.15;;;14.32;;
11394;SDS011;5753;54.402;10.220;2023-02-15T04:48:59;51.08;;;15.35;;
11394;SDS011;5753;54.402;10.220;2023-02-15T04:51:25;32.45;;;13.88;;
11394;SDS011;5753;54.402;10.220;2023-02-15T04:53:51;46.33;;;15.65;;
11394;SDS011;5753;54.402;10.220;2023-02-15T04:56:18;22.40;;;12.13;;
11394;SDS011;5753;54.402;10.220;2023-02-15T04:58:45;28.90;;;13.90;;
11394;SDS011;5753;54.402;10.220;2023-02-15T05:01:11;39.47;;;14.65;;
11394;SDS011;5753;54.402;10.220;2023-02-15T05:03:37;33.33;;;12.15;;
11394;SDS011;5753;54.402;10.220;2023-02-15T05:06:03;33.50;;;13.63;;
11394;SDS011;5753;54.402;10.220;2023-02-15T05:08:30;63.10;;;15.68;;
11394;SDS011;5753;54.402;10.220;2023-02-15T05:10:57;27.15;;;11.73;;
11394;SDS011;5753;54.402;10.220;2023-02-15T05:13:23;43.05;;;17.00;;
11394;SDS011;5753;54.402;10.220;2023-02-15T05:15:50;53.42;;;15.52;;
11394;SDS011;5753;54.402;10.220;2023-02-15T05:18:18;52.47;;;13.23;;
11394;SDS011;5753;54.402;10.220;2023-02-15T05:20:46;48.83;;;13.23;;
11394;SDS011;5753;54.402;10.220;2023-02-15T05:23:12;25.95;;;10.82;;
11394;SDS011;5753;54.402;10.220;2023-02-15T05:25:39;38.97;;;17.88;;
11394;SDS011;5753;54.402;10.220;2023-02-15T05:28:24;24.92;;;13.05;;
11394;SDS011;5753;54.402;10.220;2023-02-15T05:31:11;28.20;;;11.98;;
11394;SDS011;5753;54.402;10.220;2023-02-15T05:33:39;25.42;;;13.23;;
11394;SDS011;5753;54.402;10.220;2023-02-15T05:36:06;31.63;;;10.95;;
11394;SDS011;5753;54.402;10.220;2023-02-15T05:38:33;33.63;;;15.45;;
11394;SDS011;5753;54.402;10.220;2023-02-15T05:41:01;29.48;;;15.38;;
11394;SDS011;5753;54.402;10.220;2023-02-15T05:43:29;24.95;;;11.00;;
11394;SDS011;5753;54.402;10.220;2023-02-15T05:45:56;41.28;;;14.73;;
11394;SDS011;5753;54.402;10.220;2023-02-15T05:48:23;31.30;;;11.40;;
11394;SDS011;5753;54.402;10.220;2023-02-15T05:51:07;24.50;;;11.75;;
11394;SDS011;5753;54.402;10.220;2023-02-15T05:53:36;69.55;;;18.15;;
11394;SDS011;5753;54.402;10.220;2023-02-15T05:56:04;49.45;;;15.40;;
11394;SDS011;5753;54.402;10.220;2023-02-15T05:58:33;35.53;;;16.08;;
11394;SDS011;5753;54.402;10.220;2023-02-15T06:01:12;68.75;;;20.67;;
11394;SDS011;5753;54.402;10.220;2023-02-15T06:03:40;39.80;;;17.42;;
11394;SDS011;5753;54.402;10.220;2023-02-15T06:06:06;37.33;;;15.23;;
11394;SDS011;5753;54.402;10.220;2023-02-15T06:08:33;40.72;;;15.73;;
11394;SDS011;5753;54.402;10.220;2023-02-15T06:11:00;35.25;;;11.80;;
11394;SDS011;5753;54.402;10.220;2023-02-15T06:13:26;54.45;;;13.48;;
11394;SDS011;5753;54.402;10.220;2023-02-15T06:15:53;23.35;;;13.02;;
11394;SDS011;5753;54.402;10.220;2023-02-15T06:18:19;51.05;;;14.63;;
11394;SDS011;5753;54.402;10.220;2023-02-15T06:20:46;67.10;;;16.60;;
11394;SDS011;5753;54.402;10.220;2023-02-15T06:23:14;85.10;;;18.75;;
11394;SDS011;5753;54.402;10.220;2023-02-15T06:25:41;49.35;;;16.23;;
11394;SDS011;5753;54.402;10.220;2023-02-15T06:28:07;32.63;;;14.38;;
11394;SDS011;5753;54.402;10.220;2023-02-15T06:30:33;35.15;;;12.70;;
11394;SDS011;5753;54.402;10.220;2023-02-15T06:32:59;41.65;;;17.60;;
11394;SDS011;5753;54.402;10.220;2023-02-15T06:35:26;72.97;;;24.88;;
11394;SDS011;5753;54.402;10.220;2023-02-15T06:37:52;87.18;;;20.02;;
11394;SDS011;5753;54.402;10.220;2023-02-15T06:40:18;62.67;;;15.77;;
11394;SDS011;5753;54.402;10.220;2023-02-15T06:42:44;62.00;;;17.67;;
11394;SDS011;5753;54.402;10.220;2023-02-15T06:45:11;30.23;;;10.93;;
11394;SDS011;5753;54.402;10.220;2023-02-15T06:47:37;33.28;;;14.43;;
11394;SDS011;5753;54.402;10.220;2023-02-15T06:50:04;35.75;;;15.50;;
11394;SDS011;5753;54.402;10.220;2023-02-15T06:52:31;70.20;;;19.45;;
11394;SDS011;5753;54.402;10.220;2023-02-15T06:54:58;44.63;;;16.80;;
11394;SDS011;5753;54.402;10.220;2023-02-15T06:57:24;52.05;;;14.23;;
11394;SDS011;5753;54.402;10.220;2023-02-15T06:59:50;40.35;;;15.13;;
11394;SDS011;5753;54.402;10.220;2023-02-15T07:02:17;44.08;;;13.15;;
11394;SDS011;5753;54.402;10.220;2023-02-15T07:04:44;49.03;;;14.07;;
11394;SDS011;5753;54.402;10.220;2023-02-15T07:07:10;47.53;;;13.18;;
11394;SDS011;5753;54.402;10.220;2023-02-15T07:09:37;46.58;;;13.77;;
11394;SDS011;5753;54.402;10.220;2023-02-15T07:12:04;60.30;;;22.13;;
11394;SDS011;5753;54.402;10.220;2023-02-15T07:14:49;30.42;;;13.90;;
11394;SDS011;5753;54.402;10.220;2023-02-15T07:17:16;53.50;;;14.48;;
11394;SDS011;5753;54.402;10.220;2023-02-15T07:19:42;35.00;;;14.43;;
11394;SDS011;5753;54.402;10.220;2023-02-15T07:22:08;67.70;;;17.25;;
11394;SDS011;5753;54.402;10.220;2023-02-15T07:24:35;49.67;;;14.80;;
11394;SDS011;5753;54.402;10.220;2023-02-15T07:27:01;34.63;;;12.82;;
11394;SDS011;5753;54.402;10.220;2023-02-15T07:29:27;46.60;;;15.43;;
11394;SDS011;5753;54.402;10.220;2023-02-15T07:31:54;37.10;;;13.98;;
11394;SDS011;5753;54.402;10.220;2023-02-15T07:34:20;26.27;;;10.50;;
11394;SDS011;5753;54.402;10.220;2023-02-15T07:36:47;42.53;;;13.73;;
11394;SDS011;5753;54.402;10.220;2023-02-15T07:39:15;36.50;;;14.40;;
11394;SDS011;5753;54.402;10.220;2023-02-15T07:41:41;48.60;;;13.98;;
11394;SDS011;5753;54.402;10.220;2023-02-15T07:44:10;40.60;;;14.02;;
11394;SDS011;5753;54.402;10.220;2023-02-15T07:46:38;53.03;;;15.30;;
11394;SDS011;5753;54.402;10.220;2023-02-15T07:49:04;54.78;;;16.92;;
11394;SDS011;5753;54.402;10.220;2023-02-15T07:51:30;54.17;;;15.65;;
11394;SDS011;5753;54.402;10.220;2023-02-15T07:53:57;24.25;;;11.15;;
11394;SDS011;5753;54.402;10.220;2023-02-15T07:56:23;30.40;;;14.75;;
11394;SDS011;5753;54.402;10.220;2023-02-15T07:58:49;39.88;;;13.93;;
11394;SDS011;5753;54.402;10.220;2023-02-15T08:01:16;64.00;;;19.05;;
11394;SDS011;5753;54.402;10.220;2023-02-15T08:03:44;45.45;;;16.02;;
11394;SDS011;5753;54.402;10.220;2023-02-15T08:06:10;82.40;;;19.42;;
11394;SDS011;5753;54.402;10.220;2023-02-15T08:08:38;43.60;;;13.90;;
11394;SDS011;5753;54.402;10.220;2023-02-15T08:11:07;64.28;;;20.30;;
11394;SDS011;5753;54.402;10.220;2023-02-15T08:14:06;45.67;;;16.00;;
11394;SDS011;5753;54.402;10.220;2023-02-15T08:16:45;43.53;;;15.43;;
11394;SDS011;5753;54.402;10.220;2023-02-15T08:21:45;48.05;;;14.32;;
11394;SDS011;5753;54.402;10.220;2023-02-15T08:24:14;71.97;;;17.48;;
11394;SDS011;5753;54.402;10.220;2023-02-15T08:26:42;26.33;;;12.77;;
11394;SDS011;5753;54.402;10.220;2023-02-15T08:29:13;68.55;;;17.38;;
11394;SDS011;5753;54.402;10.220;2023-02-15T08:31:40;49.25;;;16.35;;
11394;SDS011;5753;54.402;10.220;2023-02-15T08:34:07;43.47;;;14.80;;
11394;SDS011;5753;54.402;10.220;2023-02-15T08:36:36;37.53;;;16.38;;
11394;SDS011;5753;54.402;10.220;2023-02-15T08:39:03;52.25;;;13.90;;
11394;SDS011;5753;54.402;10.220;2023-02-15T08:41:31;21.65;;;13.55;;
11394;SDS011;5753;54.402;10.220;2023-02-15T08:44:03;41.85;;;13.68;;
11394;SDS011;5753;54.402;10.220;2023-02-15T08:46:32;42.33;;;14.07;;
11394;SDS011;5753;54.402;10.220;2023-02-15T08:49:01;31.25;;;13.82;;
11394;SDS011;5753;54.402;10.220;2023-02-15T08:51:29;66.47;;;18.83;;
11394;SDS011;5753;54.402;10.220;2023-02-15T08:54:01;27.10;;;12.47;;
11394;SDS011;5753;54.402;10.220;2023-02-15T08:56:32;51.55;;;14.05;;
11394;SDS011;5753;54.402;10.220;2023-02-15T08:58:59;66.00;;;19.48;;
11394;SDS011;5753;54.402;10.220;2023-02-15T09:01:27;90.13;;;17.70;;
11394;SDS011;5753;54.402;10.220;2023-02-15T09:03:56;36.25;;;13.18;;
11394;SDS011;5753;54.402;10.220;2023-02-15T09:06:24;46.88;;;14.13;;
11394;SDS011;5753;54.402;10.220;2023-02-15T09:08:52;35.40;;;15.13;;
11394;SDS011;5753;54.402;10.220;2023-02-15T09:13:54;34.72;;;15.00;;
11394;SDS011;5753;54.402;10.220;2023-02-15T09:16:22;33.50;;;15.10;;
11394;SDS011;5753;54.402;10.220;2023-02-15T09:18:50;53.47;;;17.60;;
11394;SDS011;5753;54.402;10.220;2023-02-15T09:21:18;41.42;;;14.90;;
11394;SDS011;5753;54.402;10.220;2023-02-15T09:23:47;46.13;;;13.65;;
11394;SDS011;5753;54.402;10.220;2023-02-15T09:26:18;21.77;;;11.70;;
11394;SDS011;5753;54.402;10.220;2023-02-15T09:28:46;34.10;;;14.93;;
11394;SDS011;5753;54.402;10.220;2023-02-15T09:31:20;43.30;;;15.55;;
11394;SDS011;5753;54.402;10.220;2023-02-15T09:33:48;45.38;;;14.65;;
11394;SDS011;5753;54.402;10.220;2023-02-15T09:38:44;53.97;;;18.98;;
11394;SDS011;5753;54.402;10.220;2023-02-15T09:41:24;59.28;;;18.98;;
11394;SDS011;5753;54.402;10.220;2023-02-15T09:53:15;32.40;;;17.27;;
11394;SDS011;5753;54.402;10.220;2023-02-15T09:56:14;76.50;;;16.08;;
11394;SDS011;5753;54.402;10.220;2023-02-15T10:09:51;46.97;;;18.80;;
11394;SDS011;5753;54.402;10.220;2023-02-15T10:34:30;34.10;;;17.50;;
11394;SDS011;5753;54.402;10.220;2023-02-15T10:37:21;46.33;;;16.70;;
11394;SDS011;5753;54.402;10.220;2023-02-15T10:50:48;42.22;;;18.90;;
11394;SDS011;5753;54.402;10.220;2023-02-15T10:55:54;73.63;;;22.27;;
11394;SDS011;5753;54.402;10.220;2023-02-15T11:09:42;34.03;;;17.90;;
11394;SDS011;5753;54.402;10.220;2023-02-15T11:12:14;33.22;;;18.75;;
11394;SDS011;5753;54.402;10.220;2023-02-15T11:17:34;34.65;;;17.02;;
11394;SDS011;5753;54.402;10.220;2023-02-15T11:20:25;61.60;;;19.58;;
11394;SDS011;5753;54.402;10.220;2023-02-15T11:23:13;32.95;;;16.83;;
11394;SDS011;5753;54.402;10.220;2023-02-15T11:25:41;55.22;;;19.90;;
11394;SDS011;5753;54.402;10.220;2023-02-15T11:28:16;45.75;;;18.25;;
11394;SDS011;5753;54.402;10.220;2023-02-15T11:30:51;35.33;;;14.75;;
11394;SDS011;5753;54.402;10.220;2023-02-15T11:33:22;55.15;;;19.52;;
11394;SDS011;5753;54.402;10.220;2023-02-15T11:36:06;46.20;;;17.85;;
11394;SDS011;5753;54.402;10.220;2023-02-15T11:38:37;32.88;;;16.85;;
11394;SDS011;5753;54.402;10.220;2023-02-15T11:41:12;39.33;;;18.10;;
11394;SDS011;5753;54.402;10.220;2023-02-15T11:46:32;33.65;;;19.58;;
11394;SDS011;5753;54.402;10.220;2023-02-15T11:48:58;34.78;;;21.25;;
11394;SDS011;5753;54.402;10.220;2023-02-15T11:51:24;38.00;;;16.98;;
11394;SDS011;5753;54.402;10.220;2023-02-15T11:53:53;49.65;;;19.52;;
11394;SDS011;5753;54.402;10.220;2023-02-15T11:56:21;38.55;;;18.17;;
11394;SDS011;5753;54.402;10.220;2023-02-15T11:59:00;41.50;;;19.88;;
11394;SDS011;5753;54.402;10.220;2023-02-15T12:01:43;38.05;;;17.30;;
11394;SDS011;5753;54.402;10.220;2023-02-15T12:04:28;34.38;;;23.40;;
11394;SDS011;5753;54.402;10.220;2023-02-15T12:07:02;42.80;;;17.98;;
11394;SDS011;5753;54.402;10.220;2023-02-15T12:09:45;50.05;;;21.02;;
11394;SDS011;5753;54.402;10.220;2023-02-15T12:12:25;33.28;;;16.80;;
11394;SDS011;5753;54.402;10.220;2023-02-15T12:14:57;35.28;;;21.10;;
11394;SDS011;5753;54.402;10.220;2023-02-15T12:17:26;42.75;;;22.67;;
11394;SDS011;5753;54.402;10.220;2023-02-15T12:19:55;46.58;;;20.50;;
11394;SDS011;5753;54.402;10.220;2023-02-15T12:24:52;40.65;;;20.75;;
11394;SDS011;5753;54.402;10.220;2023-02-15T12:30:03;44.10;;;23.02;;
11394;SDS011;5753;54.402;10.220;2023-02-15T12:32:48;38.55;;;18.25;;
11394;SDS011;5753;54.402;10.220;2023-02-15T12:37:56;59.78;;;22.50;;
11394;SDS011;5753;54.402;10.220;2023-02-15T12:42:56;40.35;;;21.33;;
11394;SDS011;5753;54.402;10.220;2023-02-15T12:45:27;45.75;;;21.92;;
11394;SDS011;5753;54.402;10.220;2023-02-15T12:50:46;37.53;;;22.10;;
11394;SDS011;5753;54.402;10.220;2023-02-15T12:53:21;30.80;;;21.85;;
11394;SDS011;5753;54.402;10.220;2023-02-15T12:55:56;46.25;;;21.90;;
11394;SDS011;5753;54.402;10.220;2023-02-15T12:58:26;35.88;;;19.35;;
11394;SDS011;5753;54.402;10.220;2023-02-15T13:06:28;33.20;;;20.73;;
11394;SDS011;5753;54.402;10.220;2023-02-15T13:08:58;33.67;;;23.17;;
11394;SDS011;5753;54.402;10.220;2023-02-15T13:11:45;35.15;;;23.23;;
11394;SDS011;5753;54.402;10.220;2023-02-15T13:14:18;51.97;;;26.20;;
11394;SDS011;5753;54.402;10.220;2023-02-15T13:16:47;42.30;;;24.50;;
11394;SDS011;5753;54.402;10.220;2023-02-15T13:22:15;45.33;;;24.33;;
11394;SDS011;5753;54.402;10.220;2023-02-15T13:25:10;32.97;;;18.95;;
11394;SDS011;5753;54.402;10.220;2023-02-15T13:27:44;40.35;;;21.98;;
11394;SDS011;5753;54.402;10.220;2023-02-15T13:30:25;42.45;;;23.45;;
11394;SDS011;5753;54.402;10.220;2023-02-15T13:33:10;37.58;;;22.92;;
11394;SDS011;5753;54.402;10.220;2023-02-15T13:35:52;36.45;;;20.58;;
11394;SDS011;5753;54.402;10.220;2023-02-15T13:51:45;34.55;;;22.48;;
11394;SDS011;5753;54.402;10.220;2023-02-15T13:53:55;33.17;;;20.23;;
11394;SDS011;5753;54.402;10.220;2023-02-15T13:56:41;38.45;;;25.55;;
11394;SDS011;5753;54.402;10.220;2023-02-15T14:13:03;46.88;;;24.10;;
11394;SDS011;5753;54.402;10.220;2023-02-15T14:24:24;43.05;;;24.55;;
11394;SDS011;5753;54.402;10.220;2023-02-15T14:31:52;37.58;;;26.20;;
11394;SDS011;5753;54.402;10.220;2023-02-15T14:34:29;37.33;;;28.95;;
11394;SDS011;5753;54.402;10.220;2023-02-15T14:37:01;39.55;;;26.33;;
11394;SDS011;5753;54.402;10.220;2023-02-15T14:42:48;30.17;;;21.42;;
11394;SDS011;5753;54.402;10.220;2023-02-15T14:50:47;43.75;;;25.52;;
11394;SDS011;5753;54.402;10.220;2023-02-15T14:53:22;43.63;;;26.05;;
11394;SDS011;5753;54.402;10.220;2023-02-15T14:59:00;42.00;;;27.10;;
11394;SDS011;5753;54.402;10.220;2023-02-15T15:01:36;51.72;;;28.10;;
11394;SDS011;5753;54.402;10.220;2023-02-15T15:04:05;41.92;;;22.73;;
11394;SDS011;5753;54.402;10.220;2023-02-15T15:06:54;42.67;;;25.27;;
11394;SDS011;5753;54.402;10.220;2023-02-15T15:09:43;40.75;;;26.60;;
11394;SDS011;5753;54.402;10.220;2023-02-15T15:14:54;48.70;;;30.70;;
11394;SDS011;5753;54.402;10.220;2023-02-15T15:20:02;49.85;;;25.63;;
11394;SDS011;5753;54.402;10.220;2023-02-15T15:22:44;55.05;;;33.28;;
11394;SDS011;5753;54.402;10.220;2023-02-15T15:32:51;48.55;;;31.30;;
11394;SDS011;5753;54.402;10.220;2023-02-15T15:48:45;53.05;;;29.00;;
11394;SDS011;5753;54.402;10.220;2023-02-15T15:51:17;56.28;;;35.95;;
11394;SDS011;5753;54.402;10.220;2023-02-15T15:53:58;57.47;;;33.63;;
11394;SDS011;5753;54.402;10.220;2023-02-15T15:56:28;58.78;;;34.55;;
11394;SDS011;5753;54.402;10.220;2023-02-15T15:59:12;62.40;;;35.20;;
11394;SDS011;5753;54.402;10.220;2023-02-15T16:01:45;74.05;;;38.15;;
11394;SDS011;5753;54.402;10.220;2023-02-15T16:04:13;57.63;;;36.35;;
11394;SDS011;5753;54.402;10.220;2023-02-15T16:06:49;70.15;;;37.35;;
11394;SDS011;5753;54.402;10.220;2023-02-15T16:09:16;62.15;;;39.13;;
11394;SDS011;5753;54.402;10.220;2023-02-15T16:11:46;67.75;;;38.88;;
11394;SDS011;5753;54.402;10.220;2023-02-15T16:14:24;57.13;;;31.08;;
11394;SDS011;5753;54.402;10.220;2023-02-15T16:17:04;55.70;;;32.55;;
11394;SDS011;5753;54.402;10.220;2023-02-15T16:19:38;67.32;;;38.90;;
11394;SDS011;5753;54.402;10.220;2023-02-15T16:22:15;74.47;;;38.23;;
11394;SDS011;5753;54.402;10.220;2023-02-15T16:27:38;67.97;;;39.33;;
11394;SDS011;5753;54.402;10.220;2023-02-15T16:35:56;76.85;;;38.17;;
11394;SDS011;5753;54.402;10.220;2023-02-15T16:39:07;66.22;;;37.75;;
11394;SDS011;5753;54.402;10.220;2023-02-15T16:41:16;94.00;;;45.17;;
11394;SDS011;5753;54.402;10.220;2023-02-15T16:43:47;66.55;;;41.35;;
11394;SDS011;5753;54.402;10.220;2023-02-15T16:46:20;66.82;;;37.40;;
11394;SDS011;5753;54.402;10.220;2023-02-15T16:48:51;86.32;;;42.83;;
11394;SDS011;5753;54.402;10.220;2023-02-15T16:51:22;90.22;;;47.05;;
11394;SDS011;5753;54.402;10.220;2023-02-15T16:53:51;80.82;;;45.53;;
11394;SDS011;5753;54.402;10.220;2023-02-15T16:56:37;86.30;;;41.47;;
11394;SDS011;5753;54.402;10.220;2023-02-15T16:59:04;84.72;;;45.88;;
11394;SDS011;5753;54.402;10.220;2023-02-15T17:01:30;75.70;;;38.63;;
11394;SDS011;5753;54.402;10.220;2023-02-15T17:09:37;87.18;;;45.50;;
11394;SDS011;5753;54.402;10.220;2023-02-15T17:18:04;87.63;;;43.70;;
11394;SDS011;5753;54.402;10.220;2023-02-15T17:20:41;114.03;;;50.92;;
11394;SDS011;5753;54.402;10.220;2023-02-15T17:26:15;93.70;;;43.95;;
11394;SDS011;5753;54.402;10.220;2023-02-15T17:28:50;94.57;;;45.35;;
11394;SDS011;5753;54.402;10.220;2023-02-15T17:31:18;76.35;;;41.50;;
11394;SDS011;5753;54.402;10.220;2023-02-15T17:33:46;99.65;;;41.40;;
11394;SDS011;5753;54.402;10.220;2023-02-15T17:36:23;76.40;;;41.90;;
11394;SDS011;5753;54.402;10.220;2023-02-15T17:41:26;82.35;;;42.08;;
11394;SDS011;5753;54.402;10.220;2023-02-15T17:43:54;83.65;;;48.53;;
11394;SDS011;5753;54.402;10.220;2023-02-15T17:46:21;88.05;;;47.53;;
11394;SDS011;5753;54.402;10.220;2023-02-15T17:48:48;86.68;;;47.13;;
11394;SDS011;5753;54.402;10.220;2023-02-15T17:51:17;104.00;;;51.22;;
11394;SDS011;5753;54.402;10.220;2023-02-15T17:53:44;105.00;;;50.78;;
11394;SDS011;5753;54.402;10.220;2023-02-15T17:56:31;101.00;;;50.00;;
11394;SDS011;5753;54.402;10.220;2023-02-15T17:58:57;95.25;;;52.47;;
11394;SDS011;5753;54.402;10.220;2023-02-15T18:01:24;81.25;;;43.42;;
11394;SDS011;5753;54.402;10.220;2023-02-15T18:04:12;96.63;;;51.03;;
11394;SDS011;5753;54.402;10.220;2023-02-15T18:06:58;74.85;;;41.65;;
11394;SDS011;5753;54.402;10.220;2023-02-15T18:09:43;82.25;;;44.60;;
11394;SDS011;5753;54.402;10.220;2023-02-15T18:12:32;107.57;;;48.20;;
11394;SDS011;5753;54.402;10.220;2023-02-15T18:15:00;92.30;;;49.70;;
11394;SDS011;5753;54.402;10.220;2023-02-15T18:17:34;96.80;;;51.65;;
11394;SDS011;5753;54.402;10.220;2023-02-15T18:20:19;104.75;;;51.80;;
11394;SDS011;5753;54.402;10.220;2023-02-15T18:22:52;98.15;;;48.97;;
11394;SDS011;5753;54.402;10.220;2023-02-15T18:25:19;91.55;;;54.15;;
11394;SDS011;5753;54.402;10.220;2023-02-15T18:27:47;105.57;;;46.30;;
11394;SDS011;5753;54.402;10.220;2023-02-15T18:30:15;111.10;;;56.40;;
11394;SDS011;5753;54.402;10.220;2023-02-15T18:32:43;86.18;;;44.20;;
11394;SDS011;5753;54.402;10.220;2023-02-15T18:35:14;105.05;;;54.45;;
11394;SDS011;5753;54.402;10.220;2023-02-15T18:37:42;100.97;;;49.85;;
11394;SDS011;5753;54.402;10.220;2023-02-15T18:40:13;97.93;;;51.95;;
11394;SDS011;5753;54.402;10.220;2023-02-15T18:42:43;117.43;;;54.67;;
11394;SDS011;5753;54.402;10.220;2023-02-15T18:47:38;93.90;;;53.38;;
11394;SDS011;5753;54.402;10.220;2023-02-15T18:50:05;102.13;;;49.78;;
11394;SDS011;5753;54.402;10.220;2023-02-15T18:52:32;96.00;;;50.03;;
11394;SDS011;5753;54.402;10.220;2023-02-15T18:55:02;91.75;;;46.00;;
11394;SDS011;5753;54.402;10.220;2023-02-15T18:57:38;88.95;;;53.25;;